Terminal Aerodrome Forecast
Issued by NWS Wilmington, OH

Current Version | Previous Version | Text Only | Print | Product List | Glossary Off
Versions: 1 2 3 4 5 6 7 8 9 10 11 12 13 14 15 16 17 18 19

000
FTUS41 KILN 281737
TAFDAY
TAF
KDAY 281737Z 2818/2918 23006KT P6SM SCT018 BKN090
     FM282100 23005KT P6SM VCSH SCT040 BKN150
     FM290000 23005KT P6SM BKN150
     FM290800 VRB02KT 4SM BR SCT008 BKN150
     FM291400 24004KT P6SM BKN040=

USA.gov is the U.S. government's official web portal to all federal, state and local government web resources and services.